Time;durP1;ratioP1;P1;durP2;ratioP2;P2;SDS_P1;SDS_P2;PMS_P1;PMS_P2;Temp;Humidity;BMP_temperature;BMP_pressure;BME280_temperature;BME280_humidity;BME280_pressure;Samples;Min_cycle;Max_cycle;Signal;HPM_P1;HPM_P2
2023/10/04 00:00:16;;;;;;;1.77;0.60;;;16.10;77.10;;;;;;4999821;28;20473;-16
2023/10/04 00:02:44;;;;;;;3.00;0.70;;;16.00;77.90;;;;;;5007780;28;20080;-15
2023/10/04 00:05:11;;;;;;;1.75;0.75;;;16.00;77.20;;;;;;4982925;28;20098;-16
2023/10/04 00:07:37;;;;;;;2.37;1.03;;;16.00;77.40;;;;;;5009268;28;20088;-16
2023/10/04 00:10:05;;;;;;;2.55;0.50;;;16.00;77.30;;;;;;5008366;28;20038;-15
2023/10/04 00:12:31;;;;;;;2.38;0.60;;;16.00;77.40;;;;;;4971681;28;20532;-16
2023/10/04 00:14:57;;;;;;;2.90;0.70;;;15.90;77.40;;;;;;4982314;28;20033;-17
2023/10/04 00:17:23;;;;;;;1.20;0.70;;;15.90;77.40;;;;;;5006047;28;20021;-16
2023/10/04 00:19:49;;;;;;;3.50;0.80;;;15.90;77.60;;;;;;4998856;28;20021;-16
2023/10/04 00:22:17;;;;;;;2.72;0.60;;;15.90;77.60;;;;;;4994408;28;20053;-16
2023/10/04 00:24:43;;;;;;;2.65;0.70;;;15.90;77.60;;;;;;5008161;28;20399;-17
2023/10/04 00:27:09;;;;;;;2.87;0.67;;;15.90;77.70;;;;;;4980997;28;20040;-16
2023/10/04 00:29:35;;;;;;;2.00;0.52;;;15.80;77.80;;;;;;4974722;28;20271;-16
2023/10/04 00:32:01;;;;;;;1.48;0.70;;;15.80;77.70;;;;;;4996105;28;20041;-16
2023/10/04 00:34:29;;;;;;;1.63;0.70;;;15.90;78.00;;;;;;5005229;28;20088;-16
2023/10/04 00:36:54;;;;;;;1.10;0.50;;;15.80;78.20;;;;;;4995501;28;20029;-17
2023/10/04 00:39:20;;;;;;;1.97;0.87;;;15.80;78.10;;;;;;5005278;28;20506;-16
2023/10/04 00:41:46;;;;;;;1.48;0.60;;;15.80;78.10;;;;;;5009288;28;20479;-17
2023/10/04 00:44:15;;;;;;;3.72;0.65;;;15.80;78.20;;;;;;4982908;28;20045;-16
2023/10/04 00:46:45;;;;;;;2.03;0.63;;;15.70;78.40;;;;;;4996845;28;20060;-16
2023/10/04 00:49:15;;;;;;;1.73;0.60;;;15.70;78.20;;;;;;5008578;28;20125;-16
2023/10/04 00:51:40;;;;;;;1.00;0.60;;;15.70;78.30;;;;;;4997116;28;20434;-16
2023/10/04 00:54:08;;;;;;;3.10;0.70;;;15.70;78.60;;;;;;5010205;28;20394;-16
2023/10/04 00:56:38;;;;;;;2.00;0.40;;;15.70;82.80;;;;;;5007179;28;20223;-17
2023/10/04 00:59:04;;;;;;;1.87;0.60;;;15.70;78.90;;;;;;5006879;28;20033;-16
2023/10/04 01:01:31;;;;;;;2.45;0.60;;;15.70;79.20;;;;;;4973236;28;20686;-16
2023/10/04 01:04:01;;;;;;;1.80;0.60;;;15.70;78.70;;;;;;5003767;28;20038;-17
2023/10/04 01:06:29;;;;;;;1.33;0.57;;;15.70;78.90;;;;;;4992667;28;20705;-16
2023/10/04 01:08:56;;;;;;;2.60;0.70;;;15.60;78.80;;;;;;5021149;28;20033;-16
2023/10/04 01:11:23;;;;;;;3.30;0.83;;;15.60;79.00;;;;;;5004262;28;20315;-16
2023/10/04 01:13:53;;;;;;;1.10;0.60;;;15.70;79.00;;;;;;5004660;28;20038;-16
2023/10/04 01:16:23;;;;;;;1.67;0.80;;;15.60;79.00;;;;;;4984962;28;20022;-16
2023/10/04 01:18:49;;;;;;;1.75;0.70;;;15.60;79.10;;;;;;4999651;28;20037;-16
2023/10/04 01:21:17;;;;;;;2.90;0.93;;;15.70;79.20;;;;;;5006976;28;20070;-16
2023/10/04 01:23:45;;;;;;;2.10;0.70;;;15.60;79.20;;;;;;4997609;28;20151;-17
2023/10/04 01:26:25;;;;;;;0.77;0.50;;;15.60;79.20;;;;;;5005801;28;20030;-16
2023/10/04 01:28:51;;;;;;;2.42;0.70;;;15.70;79.40;;;;;;5006721;28;20453;-16
2023/10/04 01:31:19;;;;;;;2.13;0.57;;;15.60;79.40;;;;;;4968603;28;20061;-15
2023/10/04 01:33:44;;;;;;;3.08;0.88;;;15.60;79.40;;;;;;4991492;28;20037;-15
2023/10/04 01:36:10;;;;;;;1.20;0.57;;;15.60;79.40;;;;;;5006365;28;20441;-15
2023/10/04 01:38:36;;;;;;;1.90;0.70;;;15.70;79.40;;;;;;4995801;28;20246;-15
2023/10/04 01:41:04;;;;;;;1.97;0.67;;;15.60;79.50;;;;;;5003045;28;20406;-16
2023/10/04 01:43:30;;;;;;;2.30;0.70;;;15.60;79.50;;;;;;4998173;28;20345;-16
2023/10/04 01:45:58;;;;;;;1.63;0.60;;;15.60;79.50;;;;;;5006229;28;20518;-15
2023/10/04 01:48:26;;;;;;;2.05;0.68;;;15.60;79.70;;;;;;4972103;28;20713;-15
2023/10/04 01:50:53;;;;;;;2.10;0.63;;;15.70;79.70;;;;;;5006566;28;20390;-16
2023/10/04 01:53:26;;;;;;;1.15;0.50;;;15.60;79.50;;;;;;4995158;28;20336;-15
2023/10/04 01:55:54;;;;;;;2.78;0.70;;;15.60;80.00;;;;;;5007063;28;20414;-16
2023/10/04 01:58:23;;;;;;;2.17;0.70;;;15.60;79.70;;;;;;5004332;28;20374;-15
2023/10/04 02:00:52;;;;;;;2.00;0.80;;;15.60;79.80;;;;;;5008918;28;20509;-16
2023/10/04 02:03:18;;;;;;;2.80;0.90;;;15.60;80.00;;;;;;4977230;28;20448;-16
2023/10/04 02:05:45;;;;;;;1.67;0.70;;;15.60;80.00;;;;;;5001209;28;20120;-16
2023/10/04 02:08:11;;;;;;;1.98;0.60;;;15.60;79.90;;;;;;5004014;28;20415;-16
2023/10/04 02:10:38;;;;;;;1.65;0.60;;;15.60;79.90;;;;;;4993656;28;20394;-16
2023/10/04 02:13:08;;;;;;;2.87;0.90;;;15.60;80.00;;;;;;5007615;28;20041;-16
2023/10/04 02:15:35;;;;;;;1.27;0.70;;;15.50;80.00;;;;;;4998879;28;20034;-16
2023/10/04 02:18:01;;;;;;;1.55;0.60;;;16.70;80.90;;;;;;4982788;28;20576;-15
2023/10/04 02:20:33;;;;;;;0.70;0.50;;;15.60;80.30;;;;;;4999914;28;20136;-16
2023/10/04 02:22:59;;;;;;;1.17;0.60;;;15.60;80.50;;;;;;5005053;28;20403;-15
2023/10/04 02:25:25;;;;;;;1.57;0.60;;;15.60;80.40;;;;;;4996781;28;20058;-15
2023/10/04 02:27:52;;;;;;;1.20;0.70;;;15.60;80.40;;;;;;5004836;28;20529;-16
2023/10/04 02:30:23;;;;;;;1.60;0.60;;;15.60;80.50;;;;;;5005843;28;20033;-16
2023/10/04 02:32:52;;;;;;;1.88;0.80;;;15.60;80.50;;;;;;5005170;28;20052;-16
2023/10/04 02:35:28;;;;;;;2.50;0.60;;;15.60;80.90;;;;;;4986790;28;20380;-16
2023/10/04 02:37:59;;;;;;;1.08;0.60;;;15.60;80.50;;;;;;5008038;28;20430;-16
2023/10/04 02:40:27;;;;;;;1.58;0.50;;;15.60;80.50;;;;;;4991762;28;20088;-17
2023/10/04 02:42:55;;;;;;;1.45;0.60;;;15.60;80.40;;;;;;5011660;28;20030;-16
2023/10/04 02:45:21;;;;;;;1.23;0.70;;;15.60;80.50;;;;;;5007433;28;20191;-16
2023/10/04 02:47:49;;;;;;;1.47;0.60;;;15.60;80.50;;;;;;5011340;28;20087;-16
2023/10/04 02:50:19;;;;;;;1.52;0.68;;;15.60;80.50;;;;;;4989601;28;20127;-16
2023/10/04 02:52:50;;;;;;;2.08;0.93;;;15.60;80.70;;;;;;5010650;28;20037;-16
2023/10/04 02:55:19;;;;;;;1.42;0.60;;;15.60;80.70;;;;;;4992980;28;20247;-16
2023/10/04 02:57:49;;;;;;;1.20;0.70;;;15.60;80.50;;;;;;5009941;28;20617;-16
2023/10/04 03:00:17;;;;;;;4.33;0.87;;;15.50;80.40;;;;;;5009552;28;20021;-16
2023/10/04 03:02:48;;;;;;;2.30;0.70;;;15.50;80.40;;;;;;5009087;28;20374;-16
2023/10/04 03:05:18;;;;;;;2.13;0.68;;;15.50;80.90;;;;;;4983047;28;20340;-16
2023/10/04 03:07:44;;;;;;;2.08;0.70;;;15.50;80.50;;;;;;5015129;28;20548;-16
2023/10/04 03:10:11;;;;;;;1.83;0.60;;;15.40;80.50;;;;;;4995152;28;20295;-16
2023/10/04 03:12:38;;;;;;;2.20;0.80;;;15.40;80.60;;;;;;4988016;28;20025;-16
2023/10/04 03:15:04;;;;;;;3.40;0.70;;;15.30;80.60;;;;;;5007386;28;20025;-16
2023/10/04 03:17:31;;;;;;;1.80;1.10;;;15.00;83.90;;;;;;5012343;28;20211;-16
2023/10/04 03:19:57;;;;;;;1.25;0.60;;;15.30;80.60;;;;;;4985936;28;20045;-16
2023/10/04 03:22:23;;;;;;;1.40;0.60;;;15.30;80.60;;;;;;5006350;28;20223;-16
2023/10/04 03:24:53;;;;;;;1.53;0.60;;;15.20;80.60;;;;;;5008807;28;20088;-16
2023/10/04 03:27:21;;;;;;;2.88;0.73;;;15.20;80.90;;;;;;5001174;28;20184;-16
2023/10/04 03:29:48;;;;;;;2.08;0.77;;;15.20;80.60;;;;;;5009694;28;20026;-17
2023/10/04 03:32:15;;;;;;;1.67;0.80;;;15.10;80.70;;;;;;5006874;28;20341;-17
2023/10/04 03:34:40;;;;;;;1.77;0.70;;;15.10;80.70;;;;;;4986793;28;20033;-16
2023/10/04 03:37:13;;;;;;;1.67;0.60;;;15.10;80.60;;;;;;5006040;28;20087;-16
2023/10/04 03:39:40;;;;;;;1.85;0.80;;;15.10;80.90;;;;;;5007454;28;20025;-16
2023/10/04 03:42:05;;;;;;;3.90;0.80;;;15.10;80.90;;;;;;4995970;28;20036;-16
2023/10/04 03:44:31;;;;;;;2.75;0.70;;;15.00;80.90;;;;;;5009787;28;20038;-16
2023/10/04 03:46:58;;;;;;;1.27;0.60;;;15.00;81.00;;;;;;5006443;28;20029;-16
2023/10/04 03:49:25;;;;;;;1.75;0.70;;;15.00;81.10;;;;;;4992972;28;20044;-16
2023/10/04 03:51:52;;;;;;;1.63;0.57;;;15.00;81.10;;;;;;4984635;28;20331;-16
2023/10/04 03:54:19;;;;;;;2.47;0.70;;;15.00;81.20;;;;;;5007501;28;20044;-16
2023/10/04 03:56:45;;;;;;;2.85;0.70;;;14.90;81.20;;;;;;5000335;28;20040;-17
2023/10/04 03:59:11;;;;;;;1.25;0.88;;;14.90;81.30;;;;;;5004379;28;20235;-16
2023/10/04 04:01:38;;;;;;;1.63;0.77;;;14.90;81.20;;;;;;5006800;28;20132;-17
2023/10/04 04:04:07;;;;;;;1.88;0.80;;;14.90;81.30;;;;;;5006900;28;20032;-16
2023/10/04 04:06:32;;;;;;;2.05;0.70;;;14.80;82.20;;;;;;4986938;28;20052;-17
2023/10/04 04:09:03;;;;;;;1.75;0.65;;;14.80;81.30;;;;;;5008851;28;20026;-16
2023/10/04 04:11:29;;;;;;;1.75;0.60;;;14.80;81.40;;;;;;4991180;28;20387;-18
2023/10/04 04:13:57;;;;;;;1.80;0.80;;;14.80;81.40;;;;;;4986796;28;20030;-16
2023/10/04 04:16:23;;;;;;;1.75;0.70;;;14.80;81.40;;;;;;5004430;28;20414;-16
2023/10/04 04:18:51;;;;;;;1.73;0.90;;;14.70;81.30;;;;;;5007825;28;20331;-17
2023/10/04 04:21:17;;;;;;;0.83;0.50;;;14.70;81.30;;;;;;5005903;28;20299;-18
2023/10/04 04:23:43;;;;;;;1.88;0.85;;;14.70;81.40;;;;;;4985041;28;20034;-16
2023/10/04 04:26:09;;;;;;;2.13;0.60;;;14.60;81.30;;;;;;5004349;28;20635;-17
2023/10/04 04:28:36;;;;;;;1.23;0.50;;;14.60;81.40;;;;;;4998993;28;20042;-16
2023/10/04 04:31:09;;;;;;;1.00;0.60;;;14.60;81.50;;;;;;4993064;28;20029;-16
2023/10/04 04:33:34;;;;;;;2.20;0.88;;;14.60;81.60;;;;;;5008001;28;20541;-16
2023/10/04 04:36:11;;;;;;;2.07;0.50;;;14.50;81.60;;;;;;5008934;28;20227;-16
2023/10/04 04:38:38;;;;;;;1.63;0.70;;;14.50;81.60;;;;;;4980096;28;20049;-16
2023/10/04 04:41:12;;;;;;;2.53;0.50;;;14.40;81.40;;;;;;4999380;28;20041;-18
2023/10/04 04:43:38;;;;;;;3.50;0.90;;;14.40;82.30;;;;;;5000472;28;20477;-16
2023/10/04 04:46:13;;;;;;;2.72;0.75;;;14.40;81.70;;;;;;5006204;28;20017;-17
2023/10/04 04:48:41;;;;;;;1.75;0.70;;;14.40;82.00;;;;;;4991695;28;20554;-16
2023/10/04 04:51:12;;;;;;;1.52;0.50;;;14.30;81.80;;;;;;5011053;28;20553;-16
2023/10/04 04:53:42;;;;;;;2.35;0.63;;;14.30;81.90;;;;;;4973234;28;20079;-16
2023/10/04 04:56:13;;;;;;;1.43;0.53;;;14.30;82.00;;;;;;4986055;28;20026;-16
2023/10/04 04:58:41;;;;;;;1.80;0.80;;;14.60;87.80;;;;;;4998440;28;20014;-16
2023/10/04 05:01:13;;;;;;;2.40;0.60;;;14.20;82.00;;;;;;5009178;28;20391;-16
2023/10/04 05:03:45;;;;;;;1.35;0.55;;;14.20;82.10;;;;;;4996206;28;20574;-16
2023/10/04 05:06:21;;;;;;;2.63;0.90;;;14.20;82.30;;;;;;5005579;28;20207;-16
2023/10/04 05:08:47;;;;;;;1.87;0.80;;;14.20;82.20;;;;;;5002885;28;20057;-16
2023/10/04 05:11:12;;;;;;;2.53;0.60;;;14.10;82.20;;;;;;4984627;28;20551;-16
2023/10/04 05:13:39;;;;;;;3.28;0.60;;;14.10;82.20;;;;;;5008442;28;20112;-16
2023/10/04 05:16:05;;;;;;;2.20;0.70;;;14.10;82.30;;;;;;4994630;28;20060;-16
2023/10/04 05:18:31;;;;;;;1.97;0.87;;;14.10;82.50;;;;;;4974935;28;20233;-16
2023/10/04 05:21:00;;;;;;;2.05;0.73;;;14.10;82.50;;;;;;4986315;28;20018;-16
2023/10/04 05:23:27;;;;;;;2.75;0.85;;;13.30;86.80;;;;;;4976394;28;20620;-18
2023/10/04 05:25:54;;;;;;;1.65;0.70;;;14.00;82.70;;;;;;4981089;28;20166;-16
2023/10/04 05:28:22;;;;;;;2.72;1.00;;;14.00;83.00;;;;;;5011148;28;20053;-16
2023/10/04 05:30:48;;;;;;;2.47;0.77;;;14.00;82.90;;;;;;4992663;28;20762;-16
2023/10/04 05:33:15;;;;;;;2.20;0.80;;;14.00;82.80;;;;;;5009242;28;20116;-16
2023/10/04 05:35:46;;;;;;;3.00;0.88;;;14.00;83.10;;;;;;5007832;28;20071;-16
2023/10/04 05:38:14;;;;;;;2.47;0.73;;;14.00;83.50;;;;;;4983683;28;20502;-16
2023/10/04 05:40:45;;;;;;;3.88;1.00;;;14.00;83.10;;;;;;4993939;28;20017;-16
2023/10/04 05:43:14;;;;;;;1.33;0.63;;;14.00;83.40;;;;;;5004820;28;20115;-16
2023/10/04 05:45:42;;;;;;;2.50;0.63;;;14.00;83.10;;;;;;4983882;28;20069;-16
2023/10/04 05:48:11;;;;;;;2.83;1.10;;;14.00;83.20;;;;;;4979614;28;20277;-16
2023/10/04 05:50:37;;;;;;;1.48;0.60;;;14.00;83.30;;;;;;5006613;28;20038;-16
2023/10/04 05:53:07;;;;;;;1.60;0.70;;;14.00;88.20;;;;;;4994326;28;20026;-16
2023/10/04 05:55:37;;;;;;;1.98;0.70;;;13.90;83.40;;;;;;4985484;28;20072;-16
2023/10/04 05:58:08;;;;;;;2.30;0.77;;;14.00;83.80;;;;;;4986243;28;20614;-16
2023/10/04 06:00:37;;;;;;;2.85;0.95;;;14.00;83.70;;;;;;4998404;28;20033;-16
2023/10/04 06:03:08;;;;;;;1.38;0.60;;;13.90;83.70;;;;;;4984833;28;20057;-16
2023/10/04 06:05:35;;;;;;;1.97;0.70;;;13.90;83.90;;;;;;5009091;28;20025;-16
2023/10/04 06:08:10;;;;;;;2.97;0.90;;;14.00;83.60;;;;;;4982440;28;20177;-16
2023/10/04 06:10:36;;;;;;;2.70;0.70;;;14.70;88.50;;;;;;5023170;28;20058;-15
2023/10/04 06:13:02;;;;;;;2.70;0.90;;;13.90;87.80;;;;;;4986967;28;20030;-15
2023/10/04 06:15:30;;;;;;;1.70;0.73;;;13.90;83.70;;;;;;5011382;28;20025;-15
2023/10/04 06:17:57;;;;;;;1.90;0.77;;;13.90;83.80;;;;;;4999594;28;20018;-15
2023/10/04 06:20:33;;;;;;;2.55;0.77;;;13.90;83.90;;;;;;5013439;28;20110;-15
2023/10/04 06:23:05;;;;;;;2.42;0.95;;;13.90;84.00;;;;;;4999752;28;20123;-16
2023/10/04 06:25:32;;;;;;;1.80;0.70;;;14.00;84.20;;;;;;5005261;28;20334;-17
2023/10/04 06:28:00;;;;;;;3.17;0.70;;;13.90;84.20;;;;;;4989499;28;20021;-16
2023/10/04 06:30:27;;;;;;;3.27;0.70;;;14.00;84.50;;;;;;5013480;28;20084;-16
2023/10/04 06:32:58;;;;;;;1.73;0.70;;;14.00;84.40;;;;;;5001706;28;20059;-17
2023/10/04 06:35:24;;;;;;;1.25;0.60;;;14.00;84.40;;;;;;5008473;28;20053;-16
2023/10/04 06:37:55;;;;;;;2.08;0.73;;;14.00;84.50;;;;;;5007147;28;20030;-16
2023/10/04 06:40:22;;;;;;;3.38;0.90;;;14.10;84.60;;;;;;5008998;28;20061;-17
2023/10/04 06:42:50;;;;;;;3.50;0.67;;;13.30;89.80;;;;;;4994950;28;20021;-16
2023/10/04 06:45:17;;;;;;;2.50;0.80;;;14.10;84.70;;;;;;5012875;28;20097;-17
2023/10/04 06:47:45;;;;;;;1.73;0.50;;;14.10;84.90;;;;;;5004784;28;20034;-16
2023/10/04 06:50:16;;;;;;;1.52;0.80;;;14.20;85.00;;;;;;5028261;28;20060;-17
2023/10/04 06:52:43;;;;;;;3.05;0.90;;;14.20;84.90;;;;;;4998252;28;20608;-16
2023/10/04 06:55:12;;;;;;;1.93;0.67;;;14.80;89.30;;;;;;4992826;28;20037;-16
2023/10/04 06:57:41;;;;;;;3.00;0.90;;;14.30;85.40;;;;;;5010340;28;20045;-17
2023/10/04 07:00:15;;;;;;;1.95;0.77;;;14.30;85.20;;;;;;5002318;28;20489;-17
2023/10/04 07:02:53;;;;;;;1.35;0.70;;;14.40;85.30;;;;;;4986254;28;20116;-16
2023/10/04 07:05:22;;;;;;;2.30;0.90;;;13.60;89.00;;;;;;5013702;28;20044;-16
2023/10/04 07:07:54;;;;;;;2.67;0.70;;;14.50;85.60;;;;;;5009587;28;20045;-17
2023/10/04 07:10:21;;;;;;;2.15;0.55;;;14.50;85.40;;;;;;5000213;28;20037;-17
2023/10/04 07:12:51;;;;;;;1.98;0.80;;;14.60;85.40;;;;;;4994994;28;20191;-16
2023/10/04 07:15:18;;;;;;;2.92;1.15;;;14.70;85.50;;;;;;4974737;28;20172;-17
2023/10/04 07:17:44;;;;;;;3.67;1.45;;;14.70;85.70;;;;;;4996018;28;20041;-17
2023/10/04 07:20:15;;;;;;;3.07;0.87;;;14.80;86.10;;;;;;5009991;28;20048;-16
2023/10/04 07:22:58;;;;;;;2.25;0.80;;;14.90;86.60;;;;;;5001156;28;20160;-16
2023/10/04 07:25:29;;;;;;;3.42;0.90;;;15.10;87.80;;;;;;5000410;28;20574;-16
2023/10/04 07:27:57;;;;;;;1.90;0.80;;;15.30;88.70;;;;;;4990542;28;20099;-16
2023/10/04 07:30:24;;;;;;;2.35;1.60;;;15.60;89.40;;;;;;4988244;28;20022;-16
2023/10/04 07:32:51;;;;;;;2.60;0.87;;;15.90;89.90;;;;;;5001353;28;20037;-17
2023/10/04 07:35:20;;;;;;;2.78;0.90;;;16.30;90.10;;;;;;5011175;28;20375;-16
2023/10/04 07:37:49;;;;;;;1.55;1.05;;;16.70;90.00;;;;;;5006743;28;20501;-16
2023/10/04 07:40:16;;;;;;;4.88;1.20;;;17.00;89.70;;;;;;5003100;28;20594;-16
2023/10/04 07:42:54;;;;;;;2.85;0.90;;;17.40;89.60;;;;;;4987191;28;20518;-16
2023/10/04 07:45:22;;;;;;;1.93;0.90;;;17.70;89.30;;;;;;5011810;28;20017;-16
2023/10/04 07:47:47;;;;;;;3.83;0.90;;;18.00;89.40;;;;;;4960254;28;20424;-17
2023/10/04 07:50:15;;;;;;;3.17;1.10;;;18.30;89.30;;;;;;5006122;28;20025;-16
2023/10/04 07:52:43;;;;;;;3.90;1.30;;;18.70;89.10;;;;;;5008641;28;20115;-17
2023/10/04 07:55:14;;;;;;;2.80;0.90;;;19.00;89.20;;;;;;5001581;28;20251;-16
2023/10/04 07:57:52;;;;;;;5.10;1.20;;;19.30;89.40;;;;;;5000314;28;20034;-16
2023/10/04 08:00:18;;;;;;;4.10;1.38;;;19.70;88.50;;;;;;5007937;28;20105;-16
2023/10/04 08:02:51;;;;;;;3.90;1.10;;;20.00;88.90;;;;;;4983322;28;20037;-16
2023/10/04 08:05:23;;;;;;;3.20;1.08;;;20.30;87.30;;;;;;4998408;28;20103;-16
2023/10/04 08:07:56;;;;;;;3.60;1.13;;;20.50;86.80;;;;;;5004016;28;20050;-16
2023/10/04 08:10:29;;;;;;;5.10;1.23;;;20.60;85.20;;;;;;5010191;28;20033;-16
2023/10/04 08:12:59;;;;;;;4.18;1.15;;;20.70;84.00;;;;;;4993544;28;20099;-16
2023/10/04 08:15:26;;;;;;;2.17;1.00;;;20.70;83.00;;;;;;4987070;28;20040;-17
2023/10/04 08:17:53;;;;;;;3.42;1.10;;;20.60;82.60;;;;;;4985824;28;20088;-16
2023/10/04 08:20:21;;;;;;;2.97;1.10;;;20.40;82.00;;;;;;4977188;28;20506;-17
2023/10/04 08:22:47;;;;;;;2.30;1.10;;;20.30;81.70;;;;;;5007689;28;20442;-17
2023/10/04 08:25:23;;;;;;;2.72;0.90;;;20.20;81.80;;;;;;4986441;28;20029;-16
2023/10/04 08:27:49;;;;;;;5.05;1.30;;;20.10;82.50;;;;;;4998642;28;20140;-16
2023/10/04 08:30:17;;;;;;;3.55;0.98;;;20.00;81.70;;;;;;4992621;28;20562;-16
2023/10/04 08:32:47;;;;;;;3.23;0.90;;;19.90;81.40;;;;;;4998113;28;20037;-16
2023/10/04 08:35:28;;;;;;;3.22;1.00;;;19.80;81.30;;;;;;4987700;28;20266;-16
2023/10/04 08:37:58;;;;;;;3.25;1.10;;;19.70;81.50;;;;;;5005724;28;20048;-16
2023/10/04 08:40:28;;;;;;;2.95;1.00;;;19.70;81.70;;;;;;5011016;28;20123;-16
2023/10/04 08:42:55;;;;;;;2.70;1.00;;;19.60;82.10;;;;;;5004527;28;20089;-17
2023/10/04 08:45:24;;;;;;;3.93;1.00;;;19.70;83.20;;;;;;4990762;28;20068;-16
2023/10/04 08:47:57;;;;;;;3.35;1.10;;;19.80;84.00;;;;;;5005915;28;20025;-17
2023/10/04 08:50:34;;;;;;;2.17;0.90;;;20.00;85.10;;;;;;4973591;28;20368;-16
2023/10/04 08:53:29;;;;;;;3.45;1.25;;;20.00;83.30;;;;;;5003220;28;20026;-16
2023/10/04 08:56:01;;;;;;;3.83;1.00;;;20.20;83.10;;;;;;5002968;28;20041;-17
2023/10/04 08:58:27;;;;;;;4.10;1.10;;;20.40;84.00;;;;;;4991897;28;20044;-16
2023/10/04 09:00:53;;;;;;;2.47;0.93;;;20.60;84.80;;;;;;4984485;28;20029;-17
2023/10/04 09:03:22;;;;;;;4.32;1.20;;;20.70;84.80;;;;;;5010035;28;20022;-16
2023/10/04 09:05:52;;;;;;;3.45;1.30;;;21.00;84.30;;;;;;4971278;28;20038;-17
2023/10/04 09:08:18;;;;;;;2.67;1.00;;;21.10;84.40;;;;;;4989138;28;20384;-17
2023/10/04 09:10:44;;;;;;;4.25;1.08;;;21.40;84.30;;;;;;4987719;28;20029;-17
2023/10/04 09:13:10;;;;;;;2.45;1.10;;;21.50;83.30;;;;;;5005650;28;20022;-17
2023/10/04 09:15:37;;;;;;;4.05;1.20;;;21.70;82.70;;;;;;4998557;28;20092;-16
2023/10/04 09:18:04;;;;;;;3.55;1.30;;;21.70;82.20;;;;;;4992951;28;20123;-16
2023/10/04 09:20:33;;;;;;;3.57;1.20;;;21.80;81.30;;;;;;4985211;28;20095;-16
2023/10/04 09:23:00;;;;;;;3.40;1.17;;;21.80;81.20;;;;;;4993401;28;20112;-16
2023/10/04 09:25:36;;;;;;;4.70;1.30;;;21.90;81.50;;;;;;5005292;28;20183;-17
2023/10/04 09:28:04;;;;;;;5.10;1.67;;;21.90;80.50;;;;;;5004959;28;20226;-16
2023/10/04 09:30:32;;;;;;;4.15;1.63;;;22.00;81.30;;;;;;5003147;28;20064;-16
2023/10/04 09:32:58;;;;;;;3.43;1.20;;;22.10;81.40;;;;;;4977165;28;20113;-17
2023/10/04 09:35:43;;;;;;;4.53;1.52;;;22.20;81.40;;;;;;5007387;28;20029;-16
2023/10/04 09:38:25;;;;;;;4.35;1.20;;;22.40;79.00;;;;;;4981100;28;20041;-17
2023/10/04 09:40:55;;;;;;;4.82;1.33;;;22.50;80.00;;;;;;5004823;28;20108;-17
2023/10/04 09:43:38;;;;;;;3.22;1.30;;;22.50;79.50;;;;;;5019273;28;20037;-17
2023/10/04 09:46:11;;;;;;;4.47;1.40;;;22.60;78.00;;;;;;5004545;28;20405;-17
2023/10/04 09:48:40;;;;;;;4.40;1.30;;;22.50;78.20;;;;;;4994680;28;20045;-17
2023/10/04 09:51:09;;;;;;;4.60;1.30;;;22.50;78.50;;;;;;5005403;28;20116;-18
2023/10/04 09:53:39;;;;;;;6.30;1.75;;;22.50;77.80;;;;;;4982215;28;20033;-17
2023/10/04 09:56:07;;;;;;;3.83;1.30;;;22.40;77.20;;;;;;5007016;28;20112;-17
2023/10/04 09:58:35;;;;;;;3.60;1.40;;;22.30;76.90;;;;;;5008680;28;20045;-17
2023/10/04 10:01:11;;;;;;;3.72;1.35;;;22.20;77.20;;;;;;5004122;28;20305;-17
2023/10/04 10:03:55;;;;;;;3.00;1.20;;;22.20;76.90;;;;;;4980273;28;20421;-17
2023/10/04 10:06:23;;;;;;;5.60;1.20;;;22.20;77.70;;;;;;5007391;28;20077;-17
2023/10/04 10:08:56;;;;;;;3.45;1.30;;;22.30;78.80;;;;;;4978224;28;20033;-17
2023/10/04 10:11:22;;;;;;;2.83;1.00;;;22.40;78.90;;;;;;5011234;28;20025;-17
2023/10/04 10:13:52;;;;;;;3.67;1.17;;;22.60;79.80;;;;;;5000308;28;20032;-17
2023/10/04 10:16:19;;;;;;;2.83;1.20;;;22.80;79.00;;;;;;5004741;28;20037;-17
2023/10/04 10:18:47;;;;;;;4.85;1.13;;;22.90;78.50;;;;;;4992621;28;20030;-17
2023/10/04 10:21:12;;;;;;;5.18;1.75;;;22.40;76.80;;;;;;5003258;28;20227;-17
2023/10/04 10:23:57;;;;;;;2.83;1.10;;;23.10;77.30;;;;;;4981705;28;20025;-17
2023/10/04 10:26:24;;;;;;;2.83;1.20;;;23.20;75.40;;;;;;5006956;28;20037;-18
2023/10/04 10:29:00;;;;;;;4.80;1.50;;;23.20;76.70;;;;;;5002761;28;20349;-17
2023/10/04 10:31:26;;;;;;;4.65;1.23;;;23.30;75.70;;;;;;5004817;28;20441;-17
2023/10/04 10:33:56;;;;;;;6.63;1.60;;;23.30;76.30;;;;;;4994350;28;20038;-17
2023/10/04 10:36:27;;;;;;;3.58;1.17;;;23.40;76.20;;;;;;5007410;28;20052;-18
2023/10/04 10:38:54;;;;;;;4.32;1.38;;;23.50;75.90;;;;;;4979851;28;20036;-17
2023/10/04 10:41:30;;;;;;;3.33;1.30;;;23.50;76.30;;;;;;5007667;28;20080;-18
2023/10/04 10:44:14;;;;;;;3.83;1.33;;;23.70;74.90;;;;;;5002216;28;20379;-17
2023/10/04 10:46:56;;;;;;;2.53;1.20;;;23.80;74.30;;;;;;4969446;28;20052;-16
2023/10/04 10:49:41;;;;;;;4.90;1.27;;;24.00;74.30;;;;;;5001759;28;20049;-16
2023/10/04 10:52:34;;;;;;;3.40;1.15;;;24.10;74.60;;;;;;5005342;28;20021;-16
2023/10/04 10:55:07;;;;;;;2.60;1.30;;;24.30;73.60;;;;;;4978587;28;20045;-16
2023/10/04 10:57:38;;;;;;;3.47;1.08;;;24.30;75.20;;;;;;4986140;28;20092;-16
2023/10/04 11:00:18;;;;;;;3.03;1.20;;;24.40;74.80;;;;;;5000555;28;20070;-17
2023/10/04 11:02:46;;;;;;;2.75;1.20;;;24.50;74.00;;;;;;4999282;28;20126;-17
2023/10/04 11:05:16;;;;;;;3.47;1.23;;;24.50;73.20;;;;;;4997782;28;20045;-17
2023/10/04 11:07:42;;;;;;;2.65;1.20;;;24.50;72.70;;;;;;4997544;28;20346;-17
2023/10/04 11:10:08;;;;;;;3.97;1.23;;;24.50;72.70;;;;;;4986289;28;20038;-16
2023/10/04 11:12:37;;;;;;;3.42;1.23;;;24.40;72.40;;;;;;5007030;28;20458;-17
2023/10/04 11:15:06;;;;;;;2.63;1.00;;;24.40;72.00;;;;;;5002766;28;20552;-17
2023/10/04 11:17:33;;;;;;;3.75;1.20;;;24.30;71.60;;;;;;5001109;28;20454;-17
2023/10/04 11:19:59;;;;;;;3.53;1.05;;;24.20;71.60;;;;;;4998593;28;20533;-17
2023/10/04 11:22:25;;;;;;;3.20;1.00;;;24.20;71.30;;;;;;5000542;28;20262;-17
2023/10/04 11:24:52;;;;;;;2.40;1.02;;;24.10;71.20;;;;;;4999654;28;20489;-16
2023/10/04 11:27:27;;;;;;;2.78;1.15;;;24.00;71.10;;;;;;4985459;28;20670;-17
2023/10/04 11:29:53;;;;;;;3.13;1.10;;;24.00;70.30;;;;;;4993681;28;20376;-17
2023/10/04 11:32:20;;;;;;;4.28;1.30;;;23.90;70.90;;;;;;4992255;28;20033;-17
2023/10/04 11:34:46;;;;;;;3.67;1.10;;;23.80;70.90;;;;;;5007534;28;20257;-16
2023/10/04 11:37:13;;;;;;;3.17;1.17;;;23.80;71.20;;;;;;4996332;28;20041;-17
2023/10/04 11:39:39;;;;;;;2.65;1.00;;;23.80;71.60;;;;;;5000622;28;20383;-17
2023/10/04 11:42:21;;;;;;;3.80;1.30;;;23.80;71.70;;;;;;4963404;28;20061;-17
2023/10/04 11:44:49;;;;;;;5.23;1.20;;;23.90;70.80;;;;;;5011664;28;20437;-17
2023/10/04 11:47:26;;;;;;;4.15;1.25;;;23.90;70.70;;;;;;4990142;28;20777;-17
2023/10/04 11:49:59;;;;;;;3.95;1.35;;;23.80;69.80;;;;;;5010304;28;20430;-17
2023/10/04 11:52:29;;;;;;;3.72;1.27;;;23.70;70.00;;;;;;4995647;28;20281;-17
2023/10/04 11:54:55;;;;;;;2.83;0.90;;;23.60;69.70;;;;;;4973321;28;20648;-17
2023/10/04 11:57:29;;;;;;;4.07;1.27;;;23.50;69.90;;;;;;4987161;28;20026;-17
2023/10/04 11:59:59;;;;;;;3.63;1.20;;;23.40;70.40;;;;;;4991766;28;20297;-17
2023/10/04 12:02:25;;;;;;;3.70;1.23;;;23.20;69.50;;;;;;4999636;28;20564;-16
2023/10/04 12:04:52;;;;;;;3.33;1.10;;;23.10;69.50;;;;;;5002269;28;20060;-17
2023/10/04 12:07:18;;;;;;;2.20;1.00;;;23.00;69.90;;;;;;4977737;28;20115;-17
2023/10/04 12:09:44;;;;;;;2.55;0.98;;;22.90;70.00;;;;;;4993209;28;20237;-17
2023/10/04 12:12:16;;;;;;;2.92;1.13;;;22.80;70.00;;;;;;4985830;28;20524;-17
2023/10/04 12:14:42;;;;;;;2.58;1.05;;;22.70;70.00;;;;;;4991257;28;20314;-17
2023/10/04 12:17:08;;;;;;;3.28;1.20;;;22.60;69.90;;;;;;5000311;28;20044;-17
2023/10/04 12:19:35;;;;;;;3.57;1.20;;;22.50;69.60;;;;;;4998556;28;20406;-17
2023/10/04 12:22:08;;;;;;;5.10;1.20;;;22.40;69.70;;;;;;4998398;28;20037;-17
2023/10/04 12:24:35;;;;;;;2.90;1.10;;;22.30;70.00;;;;;;5008978;28;20064;-17
2023/10/04 12:27:01;;;;;;;3.70;1.20;;;22.10;69.90;;;;;;5000134;28;20068;-17
2023/10/04 12:29:27;;;;;;;3.43;1.30;;;22.00;70.00;;;;;;4982703;28;20124;-17
2023/10/04 12:31:54;;;;;;;3.65;1.30;;;22.00;70.10;;;;;;4976444;28;20276;-17
2023/10/04 12:34:22;;;;;;;3.25;1.30;;;21.90;70.30;;;;;;4995541;28;20060;-17
2023/10/04 12:36:48;;;;;;;3.65;1.40;;;21.80;70.50;;;;;;5007465;28;20118;-17
2023/10/04 12:39:16;;;;;;;3.20;1.20;;;21.70;70.70;;;;;;4997073;28;20387;-16
2023/10/04 12:41:45;;;;;;;2.65;1.10;;;21.60;70.60;;;;;;4993766;28;20032;-16
2023/10/04 12:44:12;;;;;;;2.78;1.08;;;21.50;70.70;;;;;;4986268;28;20133;-17
2023/10/04 12:46:41;;;;;;;4.45;1.23;;;21.40;70.90;;;;;;4990180;28;20243;-17
2023/10/04 12:49:07;;;;;;;4.70;1.20;;;21.30;70.90;;;;;;4997435;28;20017;-16
2023/10/04 12:51:34;;;;;;;3.08;1.27;;;21.30;71.20;;;;;;4994659;28;20024;-17
2023/10/04 12:54:00;;;;;;;4.68;1.25;;;21.20;71.40;;;;;;4989128;28;20030;-16
2023/10/04 12:56:26;;;;;;;2.53;1.27;;;21.10;71.60;;;;;;5008901;28;20026;-17